createdAt,value
2023-02-20T00:00:07.715Z,4.25
2023-02-20T00:02:34.162Z,4.30
2023-02-20T00:03:29.029Z,4.30
2023-02-20T00:05:00.521Z,4.90
2023-02-20T00:07:26.872Z,4.25
2023-02-20T00:08:29.133Z,4.25
2023-02-20T00:09:53.193Z,4.93
2023-02-20T00:12:19.549Z,4.68
2023-02-20T00:13:29.081Z,4.68
2023-02-20T00:14:45.913Z,4.15
2023-02-20T00:17:12.359Z,4.20
2023-02-20T00:18:29.037Z,4.20
2023-02-20T00:19:38.877Z,4.10
2023-02-20T00:22:05.223Z,3.58
2023-02-20T00:23:29.063Z,3.58
2023-02-20T00:24:31.532Z,4.55
2023-02-20T00:26:57.902Z,4.22
2023-02-20T00:28:29.170Z,4.22
2023-02-20T00:29:24.706Z,4.78
2023-02-20T00:31:56.068Z,4.60
2023-02-20T00:33:29.028Z,4.60
2023-02-20T00:34:23.547Z,6.97
2023-02-20T00:36:49.957Z,4.72
2023-02-20T00:38:29.117Z,4.72
2023-02-20T00:39:16.474Z,4.90
2023-02-20T00:41:42.923Z,4.82
2023-02-20T00:43:29.048Z,4.82
2023-02-20T00:44:09.323Z,5.20
2023-02-20T00:46:35.811Z,4.50
2023-02-20T00:48:29.049Z,4.50
2023-02-20T00:49:02.331Z,4.53
2023-02-20T00:51:29.005Z,5.07
2023-02-20T00:53:29.069Z,5.07
2023-02-20T00:53:55.459Z,5.38
2023-02-20T00:56:21.974Z,4.65
2023-02-20T00:58:29.036Z,4.65
2023-02-20T00:58:48.550Z,3.92
2023-02-20T01:01:17.865Z,4.28
2023-02-20T01:03:29.055Z,4.28
2023-02-20T01:03:44.554Z,4.72
2023-02-20T01:06:11.436Z,4.95
2023-02-20T01:08:29.055Z,4.95
2023-02-20T01:08:38.089Z,5.00
2023-02-20T01:11:04.512Z,4.88
2023-02-20T01:13:29.068Z,4.88
2023-02-20T01:13:31.100Z,5.65
2023-02-20T01:16:00.593Z,5.53
2023-02-20T01:18:27.114Z,5.22
2023-02-20T01:18:29.054Z,5.22
2023-02-20T01:20:53.554Z,4.97
2023-02-20T01:23:19.959Z,5.82
2023-02-20T01:23:29.041Z,5.82
2023-02-20T01:25:46.421Z,5.65
2023-02-20T01:28:12.748Z,4.70
2023-02-20T01:28:30.102Z,4.70
2023-02-20T01:30:39.164Z,4.68
2023-02-20T01:33:05.711Z,4.30
2023-02-20T01:33:29.036Z,4.30
2023-02-20T01:35:33.222Z,4.72
2023-02-20T01:38:00.243Z,4.57
2023-02-20T01:38:29.097Z,4.57
2023-02-20T01:40:27.980Z,4.47
2023-02-20T01:42:54.614Z,5.53
2023-02-20T01:43:29.097Z,5.53
2023-02-20T01:45:23.833Z,5.05
2023-02-20T01:47:54.164Z,5.35
2023-02-20T01:48:29.151Z,5.35
2023-02-20T01:50:43.932Z,5.40
2023-02-20T01:53:14.625Z,5.20
2023-02-20T01:53:29.159Z,5.20
2023-02-20T01:55:48.447Z,4.72
2023-02-20T01:58:20.561Z,5.32
2023-02-20T01:58:29.196Z,5.32
2023-02-20T02:00:47.003Z,4.72
2023-02-20T02:03:21.046Z,5.20
2023-02-20T02:03:29.235Z,5.20
2023-02-20T02:05:52.826Z,4.43
2023-02-20T02:08:22.500Z,4.63
2023-02-20T02:08:29.243Z,4.63
2023-02-20T02:11:02.646Z,4.05
2023-02-20T02:13:30.674Z,4.60
2023-02-20T02:13:30.829Z,4.60
2023-02-20T02:16:36.386Z,4.47
2023-02-20T02:18:29.291Z,4.47
2023-02-20T02:19:15.066Z,5.60
2023-02-20T02:22:05.598Z,4.55
2023-02-20T02:23:29.300Z,4.55
2023-02-20T02:24:55.559Z,4.53
2023-02-20T02:27:56.482Z,4.35
2023-02-20T02:28:29.347Z,4.35
2023-02-20T02:30:44.047Z,5.20
2023-02-20T02:33:28.579Z,4.78
2023-02-20T02:33:29.352Z,4.78
2023-02-20T02:36:13.976Z,5.72
2023-02-20T02:38:29.495Z,5.72
2023-02-20T02:39:19.824Z,4.20
2023-02-20T02:41:53.367Z,5.28
2023-02-20T02:43:29.421Z,5.28
2023-02-20T02:44:29.901Z,6.18
2023-02-20T02:47:04.138Z,6.07
2023-02-20T02:48:29.389Z,6.07
2023-02-20T02:49:30.518Z,5.18
2023-02-20T02:51:59.080Z,6.07
2023-02-20T02:53:29.411Z,6.07
2023-02-20T02:54:27.564Z,5.72
2023-02-20T02:57:24.508Z,4.60
2023-02-20T02:58:29.370Z,4.60
2023-02-20T02:59:57.987Z,4.95
2023-02-20T03:02:27.731Z,5.20
2023-02-20T03:03:29.390Z,5.20
2023-02-20T03:04:55.524Z,5.22
2023-02-20T03:07:23.606Z,4.28
2023-02-20T03:08:29.382Z,4.28
2023-02-20T03:10:00.520Z,5.18
2023-02-20T03:12:27.929Z,5.07
2023-02-20T03:13:29.383Z,5.07
2023-02-20T03:15:18.804Z,4.50
2023-02-20T03:17:59.597Z,5.15
2023-02-20T03:18:29.363Z,5.15
2023-02-20T03:20:29.170Z,4.35
2023-02-20T03:23:01.115Z,5.10
2023-02-20T03:23:29.380Z,5.10
2023-02-20T03:25:53.825Z,5.93
2023-02-20T03:28:35.195Z,6.25
2023-02-20T03:28:35.370Z,6.25
2023-02-20T03:31:09.314Z,4.72
2023-02-20T03:33:29.364Z,4.72
2023-02-20T03:34:23.756Z,5.03
2023-02-20T03:37:16.549Z,4.68
2023-02-20T03:38:29.427Z,4.68
2023-02-20T03:40:06.713Z,5.20
2023-02-20T03:42:55.961Z,4.90
2023-02-20T03:43:29.390Z,4.90
2023-02-20T03:45:25.858Z,4.45
2023-02-20T03:47:59.567Z,4.90
2023-02-20T03:48:29.378Z,4.90
2023-02-20T03:50:44.665Z,3.75
2023-02-20T03:53:11.221Z,4.88
2023-02-20T03:53:29.389Z,4.88
2023-02-20T03:55:37.704Z,4.38
2023-02-20T03:58:09.127Z,4.13
2023-02-20T03:58:29.395Z,4.13
2023-02-20T04:00:41.266Z,4.07
2023-02-20T04:03:14.334Z,4.57
2023-02-20T04:03:29.391Z,4.57
2023-02-20T04:05:44.654Z,3.95
2023-02-20T04:08:16.648Z,4.40
2023-02-20T04:08:29.417Z,4.40
2023-02-20T04:10:59.727Z,4.15
2023-02-20T04:13:30.400Z,4.30
2023-02-20T04:13:30.550Z,4.30
2023-02-20T04:16:00.509Z,4.07
2023-02-20T04:18:28.269Z,4.53
2023-02-20T04:18:29.402Z,4.53
2023-02-20T04:20:56.900Z,3.80
2023-02-20T04:23:25.977Z,4.55
2023-02-20T04:23:29.411Z,4.55
2023-02-20T04:26:09.601Z,4.70
2023-02-20T04:28:29.422Z,4.70
2023-02-20T04:28:36.184Z,4.07
2023-02-20T04:31:02.787Z,4.40
2023-02-20T04:33:29.375Z,4.00
2023-02-20T04:33:29.530Z,4.00
2023-02-20T04:35:58.342Z,4.00
2023-02-20T04:38:25.333Z,4.88
2023-02-20T04:38:29.419Z,4.88
2023-02-20T04:40:52.288Z,4.57
2023-02-20T04:43:18.643Z,4.53
2023-02-20T04:43:29.419Z,4.53
2023-02-20T04:45:45.108Z,4.93
2023-02-20T04:48:11.569Z,3.78
2023-02-20T04:48:29.407Z,3.78
2023-02-20T04:50:37.949Z,4.78
2023-02-20T04:53:04.435Z,4.38
2023-02-20T04:53:29.417Z,4.38
2023-02-20T04:55:30.911Z,4.45
2023-02-20T04:57:58.416Z,5.00
2023-02-20T04:58:29.396Z,5.00
2023-02-20T05:00:26.393Z,3.63
2023-02-20T05:02:52.937Z,3.45
2023-02-20T05:03:29.416Z,3.45
2023-02-20T05:05:25.846Z,3.63
2023-02-20T05:08:05.605Z,4.57
2023-02-20T05:08:29.501Z,4.57
2023-02-20T05:10:33.303Z,3.95
2023-02-20T05:13:00.533Z,3.88
2023-02-20T05:13:29.429Z,3.88
2023-02-20T05:15:28.344Z,5.00
2023-02-20T05:17:55.020Z,3.88
2023-02-20T05:18:29.411Z,3.88
2023-02-20T05:20:21.592Z,4.10
2023-02-20T05:22:48.774Z,4.18
2023-02-20T05:23:29.401Z,4.18
2023-02-20T05:25:15.608Z,3.67
2023-02-20T05:27:42.605Z,4.00
2023-02-20T05:28:29.420Z,4.00
2023-02-20T05:30:10.267Z,4.00
2023-02-20T05:32:37.505Z,3.50
2023-02-20T05:33:29.417Z,3.50
2023-02-20T05:35:04.081Z,3.47
2023-02-20T05:37:33.604Z,3.97
2023-02-20T05:38:29.421Z,3.97
2023-02-20T05:40:00.168Z,3.70
2023-02-20T05:42:26.594Z,3.40
2023-02-20T05:43:29.427Z,3.40
2023-02-20T05:44:53.019Z,3.60
2023-02-20T05:47:19.387Z,4.40
2023-02-20T05:48:29.449Z,4.40
2023-02-20T05:49:46.505Z,3.35
2023-02-20T05:52:13.245Z,4.05
2023-02-20T05:53:29.405Z,4.05
2023-02-20T05:54:41.428Z,3.10
2023-02-20T05:57:08.536Z,3.95
2023-02-20T05:58:29.446Z,3.95
2023-02-20T05:59:34.948Z,3.20
2023-02-20T06:02:01.457Z,4.25
2023-02-20T06:03:29.468Z,4.25
2023-02-20T06:04:29.555Z,3.50
2023-02-20T06:06:56.165Z,3.55
2023-02-20T06:08:29.429Z,3.55
2023-02-20T06:09:22.900Z,3.47
2023-02-20T06:11:51.592Z,3.15
2023-02-20T06:13:29.483Z,3.15
2023-02-20T06:14:19.915Z,3.30
2023-02-20T06:16:46.730Z,3.50
2023-02-20T06:18:29.416Z,3.50
2023-02-20T06:19:22.372Z,3.50
2023-02-20T06:21:50.376Z,3.55
2023-02-20T06:23:29.437Z,3.55
2023-02-20T06:24:17.668Z,3.65
2023-02-20T06:26:44.407Z,3.50
2023-02-20T06:28:29.474Z,3.50
2023-02-20T06:29:11.823Z,3.13
2023-02-20T06:31:38.416Z,3.47
2023-02-20T06:33:29.455Z,3.47
2023-02-20T06:34:06.269Z,3.75
2023-02-20T06:36:36.090Z,3.85
2023-02-20T06:38:29.432Z,3.85
2023-02-20T06:39:03.388Z,3.58
2023-02-20T06:41:29.928Z,3.30
2023-02-20T06:43:29.476Z,3.30
2023-02-20T06:43:56.421Z,4.07
2023-02-20T06:46:23.517Z,3.97
2023-02-20T06:48:29.475Z,3.97
2023-02-20T06:48:52.523Z,3.10
2023-02-20T06:51:20.824Z,3.55
2023-02-20T06:53:29.452Z,3.55
2023-02-20T06:53:47.596Z,3.63
2023-02-20T06:56:20.443Z,3.65
2023-02-20T06:58:29.476Z,3.65
2023-02-20T06:58:47.751Z,3.45
2023-02-20T07:01:15.579Z,4.75
2023-02-20T07:03:29.453Z,4.75
2023-02-20T07:03:42.099Z,5.18
2023-02-20T07:06:08.787Z,4.20
2023-02-20T07:08:29.478Z,4.20
2023-02-20T07:08:35.180Z,4.00
2023-02-20T07:11:01.597Z,4.95
2023-02-20T07:13:27.938Z,5.75
2023-02-20T07:13:29.479Z,5.75
2023-02-20T07:15:54.650Z,4.85
2023-02-20T07:18:23.969Z,4.68
2023-02-20T07:18:29.464Z,4.68
2023-02-20T07:20:55.257Z,4.93
2023-02-20T07:23:22.555Z,5.32
2023-02-20T07:23:29.481Z,5.32
2023-02-20T07:25:50.083Z,5.90
2023-02-20T07:28:18.717Z,6.20
2023-02-20T07:28:29.498Z,6.20
2023-02-20T07:30:46.666Z,4.85
2023-02-20T07:33:15.676Z,5.53
2023-02-20T07:33:29.479Z,5.53
2023-02-20T07:35:42.179Z,4.65
2023-02-20T07:38:08.689Z,5.60
2023-02-20T07:38:29.452Z,5.60
2023-02-20T07:40:35.321Z,4.88
2023-02-20T07:43:02.039Z,4.60
2023-02-20T07:43:29.476Z,4.60
2023-02-20T07:45:28.554Z,6.07
2023-02-20T07:47:55.106Z,4.63
2023-02-20T07:48:29.482Z,4.63
2023-02-20T07:50:21.611Z,4.88
2023-02-20T07:52:48.183Z,5.60
2023-02-20T07:53:29.458Z,5.60
2023-02-20T07:55:18.918Z,5.75
2023-02-20T07:57:50.335Z,5.45
2023-02-20T07:58:29.469Z,5.45
2023-02-20T08:00:18.352Z,4.65
2023-02-20T08:02:45.073Z,4.35
2023-02-20T08:03:29.460Z,4.35
2023-02-20T08:05:12.207Z,5.15
2023-02-20T08:07:38.885Z,5.50
2023-02-20T08:08:29.458Z,5.50
2023-02-20T08:10:06.204Z,4.60
2023-02-20T08:12:32.677Z,5.05
2023-02-20T08:13:29.465Z,5.05
2023-02-20T08:14:59.038Z,4.90
2023-02-20T08:17:31.906Z,5.15
2023-02-20T08:18:29.483Z,5.15
2023-02-20T08:20:04.444Z,4.45
2023-02-20T08:22:41.151Z,4.43
2023-02-20T08:23:29.474Z,4.43
2023-02-20T08:25:08.164Z,5.22
2023-02-20T08:27:38.288Z,5.72
2023-02-20T08:28:29.508Z,5.72
2023-02-20T08:30:23.829Z,6.57
2023-02-20T08:32:51.761Z,5.70
2023-02-20T08:33:29.513Z,5.70
2023-02-20T08:35:19.711Z,5.35
2023-02-20T08:37:46.319Z,6.68
2023-02-20T08:38:29.483Z,6.68
2023-02-20T08:40:13.676Z,5.47
2023-02-20T08:42:40.157Z,4.35
2023-02-20T08:43:29.500Z,4.35
2023-02-20T08:45:08.328Z,4.88
2023-02-20T08:47:35.212Z,5.32
2023-02-20T08:48:29.461Z,5.32
2023-02-20T08:50:02.010Z,5.32
2023-02-20T08:52:28.412Z,4.78
2023-02-20T08:53:29.500Z,4.78
2023-02-20T08:54:54.978Z,4.28
2023-02-20T08:57:21.290Z,5.20
2023-02-20T08:58:29.475Z,5.20
2023-02-20T08:59:47.671Z,5.05
2023-02-20T09:02:19.870Z,6.57
2023-02-20T09:03:29.493Z,6.57
2023-02-20T09:04:46.999Z,6.55
2023-02-20T09:07:15.907Z,6.43
2023-02-20T09:08:29.497Z,6.43
2023-02-20T09:09:42.810Z,5.07
2023-02-20T09:12:12.016Z,5.78
2023-02-20T09:13:29.468Z,5.78
2023-02-20T09:14:38.544Z,5.65
2023-02-20T09:17:05.560Z,6.10
2023-02-20T09:18:29.479Z,6.10
2023-02-20T09:19:32.898Z,5.45
2023-02-20T09:21:59.515Z,4.97
2023-02-20T09:23:29.490Z,4.97
2023-02-20T09:24:28.152Z,5.20
2023-02-20T09:26:56.398Z,5.72
2023-02-20T09:28:30.499Z,5.72
2023-02-20T09:29:23.814Z,6.13
2023-02-20T09:31:50.524Z,6.32
2023-02-20T09:33:29.479Z,6.32
2023-02-20T09:34:16.937Z,5.35
2023-02-20T09:36:43.434Z,4.53
2023-02-20T09:38:29.511Z,4.53
2023-02-20T09:39:09.840Z,6.25
2023-02-20T09:42:01.890Z,6.35
2023-02-20T09:43:29.532Z,6.35
2023-02-20T09:44:46.431Z,4.95
2023-02-20T09:47:30.787Z,6.03
2023-02-20T09:48:29.461Z,6.03
2023-02-20T09:50:02.710Z,5.60
2023-02-20T09:52:30.419Z,5.68
2023-02-20T09:53:29.519Z,5.68
2023-02-20T09:55:11.816Z,4.85
2023-02-20T09:57:39.965Z,5.05
2023-02-20T09:58:29.481Z,5.05
2023-02-20T10:00:13.411Z,5.30
2023-02-20T10:02:53.711Z,5.65
2023-02-20T10:03:29.501Z,5.65
2023-02-20T10:05:28.030Z,5.60
2023-02-20T10:07:54.529Z,4.90
2023-02-20T10:08:29.485Z,4.90
2023-02-20T10:10:24.188Z,6.50
2023-02-20T10:13:13.544Z,5.55
2023-02-20T10:13:29.500Z,5.55
2023-02-20T10:15:52.314Z,5.95
2023-02-20T10:18:49.340Z,4.93
2023-02-20T10:18:49.481Z,4.93
2023-02-20T10:21:39.720Z,6.18
2023-02-20T10:23:29.478Z,6.18
2023-02-20T10:24:24.322Z,4.70
2023-02-20T10:26:57.790Z,5.50
2023-02-20T10:28:29.511Z,5.50
2023-02-20T10:29:28.851Z,5.55
2023-02-20T10:32:04.317Z,5.93
2023-02-20T10:33:29.493Z,5.93
2023-02-20T10:34:39.679Z,4.97
2023-02-20T10:37:17.412Z,6.00
2023-02-20T10:38:29.528Z,6.00
2023-02-20T10:39:53.719Z,6.18
2023-02-20T10:42:29.896Z,5.85
2023-02-20T10:43:29.513Z,5.85
2023-02-20T10:45:03.340Z,4.93
2023-02-20T10:47:39.004Z,6.25
2023-02-20T10:48:30.524Z,6.25
2023-02-20T10:50:09.540Z,6.57
2023-02-20T10:52:42.338Z,5.55
2023-02-20T10:53:29.495Z,5.55
2023-02-20T10:55:21.135Z,5.72
2023-02-20T10:58:06.018Z,5.63
2023-02-20T10:58:29.503Z,5.63
2023-02-20T11:00:58.402Z,5.13
2023-02-20T11:03:37.945Z,6.22
2023-02-20T11:03:38.133Z,6.22
2023-02-20T11:06:07.432Z,5.43
2023-02-20T11:08:29.460Z,5.43
2023-02-20T11:08:33.845Z,5.47
2023-02-20T11:11:23.412Z,5.88
2023-02-20T11:13:29.493Z,5.88
2023-02-20T11:13:50.509Z,5.45
2023-02-20T11:16:32.095Z,5.68
2023-02-20T11:18:29.501Z,5.68
2023-02-20T11:19:06.340Z,6.50
2023-02-20T11:21:34.858Z,4.78
2023-02-20T11:23:29.486Z,4.78
2023-02-20T11:24:25.593Z,5.82
2023-02-20T11:26:57.081Z,5.18
2023-02-20T11:28:30.562Z,5.18
2023-02-20T11:29:24.159Z,7.22
2023-02-20T11:31:50.700Z,6.40
2023-02-20T11:33:29.491Z,6.40
2023-02-20T11:34:22.252Z,5.90
2023-02-20T11:36:53.530Z,5.57
2023-02-20T11:38:29.551Z,5.57
2023-02-20T11:39:30.594Z,5.68
2023-02-20T11:42:20.104Z,5.50
2023-02-20T11:43:29.493Z,5.50
2023-02-20T11:45:11.665Z,5.88
2023-02-20T11:47:38.458Z,5.95
2023-02-20T11:48:30.554Z,5.95
2023-02-20T11:50:19.657Z,5.45
2023-02-20T11:52:56.812Z,5.35
2023-02-20T11:53:29.493Z,5.35
2023-02-20T11:55:27.471Z,8.02
2023-02-20T11:57:54.049Z,5.70
2023-02-20T11:58:29.569Z,5.70
2023-02-20T12:00:28.692Z,6.10
2023-02-20T12:03:03.824Z,6.40
2023-02-20T12:03:29.512Z,6.40
2023-02-20T12:05:37.936Z,6.25
2023-02-20T12:08:28.695Z,7.00
2023-02-20T12:08:29.526Z,7.00
2023-02-20T12:11:01.035Z,6.10
2023-02-20T12:13:27.943Z,6.95
2023-02-20T12:13:29.527Z,6.95
2023-02-20T12:16:19.949Z,8.15
2023-02-20T12:18:29.505Z,8.15
2023-02-20T12:18:49.138Z,6.40
2023-02-20T12:21:41.581Z,7.03
2023-02-20T12:23:29.529Z,7.03
2023-02-20T12:24:37.199Z,7.13
2023-02-20T12:27:19.779Z,7.20
2023-02-20T12:28:29.530Z,7.20
2023-02-20T12:29:57.825Z,6.43
2023-02-20T12:32:30.144Z,7.20
2023-02-20T12:33:29.521Z,7.20
2023-02-20T12:35:34.451Z,6.78
2023-02-20T12:38:19.508Z,6.88
2023-02-20T12:38:29.555Z,6.88
2023-02-20T12:41:17.647Z,6.45
2023-02-20T12:43:29.521Z,6.45
2023-02-20T12:44:13.917Z,6.47
2023-02-20T12:46:43.093Z,6.70
2023-02-20T12:48:29.517Z,6.70
2023-02-20T12:49:42.821Z,6.78
2023-02-20T12:52:31.619Z,6.10
2023-02-20T12:53:29.535Z,6.10
2023-02-20T12:55:13.686Z,7.80
2023-02-20T12:58:06.261Z,5.60
2023-02-20T12:58:29.509Z,5.60
2023-02-20T13:00:40.431Z,5.97
2023-02-20T13:03:12.913Z,5.00
2023-02-20T13:03:29.541Z,5.00
2023-02-20T13:05:46.652Z,5.53
2023-02-20T13:08:31.785Z,6.68
2023-02-20T13:08:31.949Z,6.68
2023-02-20T13:11:09.503Z,6.07
2023-02-20T13:13:29.496Z,6.07
2023-02-20T13:13:49.501Z,6.57
2023-02-20T13:16:26.379Z,6.22
2023-02-20T13:18:29.533Z,6.22
2023-02-20T13:19:10.824Z,5.57
2023-02-20T13:21:37.330Z,6.30
2023-02-20T13:23:29.540Z,6.30
2023-02-20T13:24:19.094Z,6.78
2023-02-20T13:26:52.434Z,5.72
2023-02-20T13:28:29.534Z,5.72
2023-02-20T13:29:23.812Z,5.72
2023-02-20T13:31:52.971Z,11.18
2023-02-20T13:33:29.551Z,11.18
2023-02-20T13:34:19.351Z,6.75
2023-02-20T13:36:48.628Z,6.13
2023-02-20T13:38:29.548Z,6.13
2023-02-20T13:39:21.002Z,7.90
2023-02-20T13:41:56.282Z,6.13
2023-02-20T13:43:29.532Z,6.13
2023-02-20T13:44:28.726Z,6.22
2023-02-20T13:47:27.056Z,5.18
2023-02-20T13:48:29.518Z,5.18
2023-02-20T13:49:59.035Z,6.38
2023-02-20T13:52:38.481Z,7.20
2023-02-20T13:53:29.592Z,7.20
2023-02-20T13:55:23.388Z,5.78
2023-02-20T13:57:56.380Z,6.72
2023-02-20T13:58:29.513Z,6.72
2023-02-20T14:00:44.456Z,7.18
2023-02-20T14:03:13.642Z,7.13
2023-02-20T14:03:29.561Z,7.13
2023-02-20T14:05:40.311Z,5.88
2023-02-20T14:08:06.703Z,5.53
2023-02-20T14:08:29.546Z,5.53
2023-02-20T14:10:36.461Z,7.10
2023-02-20T14:13:11.278Z,6.13
2023-02-20T14:13:39.790Z,6.13
2023-02-20T14:15:54.323Z,6.30
2023-02-20T14:18:26.012Z,5.57
2023-02-20T14:18:29.555Z,5.57
2023-02-20T14:21:08.398Z,6.53
2023-02-20T14:23:29.554Z,6.53
2023-02-20T14:23:35.418Z,6.13
2023-02-20T14:26:05.181Z,8.40
2023-02-20T14:28:29.605Z,8.40
2023-02-20T14:28:34.725Z,7.30
2023-02-20T14:31:05.489Z,7.22
2023-02-20T14:33:29.520Z,7.22
2023-02-20T14:33:33.327Z,7.47
2023-02-20T14:36:24.322Z,7.32
2023-02-20T14:38:29.556Z,7.32
2023-02-20T14:39:17.570Z,5.82
2023-02-20T14:42:00.076Z,5.32
2023-02-20T14:43:29.527Z,5.32
2023-02-20T14:44:27.448Z,5.82
2023-02-20T14:46:58.692Z,5.60
2023-02-20T14:48:29.557Z,5.60
2023-02-20T14:49:31.175Z,5.65
2023-02-20T14:52:09.566Z,5.65
2023-02-20T14:53:29.537Z,5.65
2023-02-20T14:54:40.845Z,5.53
2023-02-20T14:57:15.236Z,5.88
2023-02-20T14:58:29.523Z,5.88
2023-02-20T14:59:42.306Z,5.57
2023-02-20T15:02:33.502Z,6.35
2023-02-20T15:03:31.288Z,6.35
2023-02-20T15:05:07.466Z,5.93
2023-02-20T15:07:34.820Z,6.88
2023-02-20T15:08:29.568Z,6.88
2023-02-20T15:10:05.196Z,6.10
2023-02-20T15:12:42.529Z,6.20
2023-02-20T15:13:29.565Z,6.20
2023-02-20T15:15:13.699Z,6.30
2023-02-20T15:17:42.969Z,5.25
2023-02-20T15:18:29.572Z,5.25
2023-02-20T15:20:31.591Z,7.25
2023-02-20T15:23:15.553Z,6.15
2023-02-20T15:23:29.590Z,6.15
2023-02-20T15:25:43.681Z,5.32
2023-02-20T15:28:18.912Z,6.10
2023-02-20T15:28:29.559Z,6.10
2023-02-20T15:31:09.516Z,4.90
2023-02-20T15:33:29.524Z,4.90
2023-02-20T15:33:38.232Z,5.30
2023-02-20T15:36:06.192Z,5.55
2023-02-20T15:38:29.569Z,5.55
2023-02-20T15:38:34.855Z,5.68
2023-02-20T15:41:03.587Z,5.25
2023-02-20T15:43:43.224Z,5.20
2023-02-20T15:43:50.671Z,5.20
2023-02-20T15:46:14.953Z,5.03
2023-02-20T15:48:29.560Z,5.03
2023-02-20T15:48:42.259Z,5.85
2023-02-20T15:51:10.845Z,5.90
2023-02-20T15:53:29.579Z,5.90
2023-02-20T15:53:38.457Z,5.97
2023-02-20T15:56:05.788Z,6.55
2023-02-20T15:58:33.480Z,6.55
2023-02-20T15:58:36.248Z,5.85
2023-02-20T16:01:03.210Z,6.28
2023-02-20T16:03:33.860Z,6.10
2023-02-20T16:03:51.068Z,6.10
2023-02-20T16:06:05.305Z,8.10
2023-02-20T16:08:29.571Z,8.10
2023-02-20T16:08:32.046Z,5.47
2023-02-20T16:10:58.470Z,5.93
2023-02-20T16:13:33.400Z,4.93
2023-02-20T16:13:33.553Z,4.93
2023-02-20T16:16:12.029Z,5.78
2023-02-20T16:18:29.553Z,5.78
2023-02-20T16:18:41.483Z,5.03
2023-02-20T16:21:07.855Z,6.18
2023-02-20T16:23:29.583Z,6.18
2023-02-20T16:23:34.250Z,5.68
2023-02-20T16:26:01.385Z,6.65
2023-02-20T16:28:27.759Z,5.97
2023-02-20T16:28:29.558Z,5.97
2023-02-20T16:30:54.210Z,5.80
2023-02-20T16:33:23.119Z,6.15
2023-02-20T16:33:29.587Z,6.15
2023-02-20T16:35:52.575Z,4.88
2023-02-20T16:38:20.250Z,6.95
2023-02-20T16:38:29.598Z,6.95
2023-02-20T16:40:47.332Z,5.75
2023-02-20T16:43:14.298Z,6.03
2023-02-20T16:43:29.592Z,6.03
2023-02-20T16:45:43.372Z,6.35
2023-02-20T16:48:17.802Z,5.80
2023-02-20T16:48:29.559Z,5.80
2023-02-20T16:50:48.077Z,5.32
2023-02-20T16:53:14.459Z,7.20
2023-02-20T16:53:29.591Z,7.20
2023-02-20T16:55:48.830Z,5.70
2023-02-20T16:58:15.385Z,5.03
2023-02-20T16:58:29.574Z,5.03
2023-02-20T17:00:54.958Z,5.47
2023-02-20T17:03:23.807Z,5.03
2023-02-20T17:03:29.572Z,5.03
2023-02-20T17:05:50.444Z,5.53
2023-02-20T17:08:16.825Z,6.20
2023-02-20T17:08:29.577Z,6.20
2023-02-20T17:10:43.332Z,5.57
2023-02-20T17:13:09.757Z,5.43
2023-02-20T17:13:29.547Z,5.43
2023-02-20T17:15:37.674Z,5.50
2023-02-20T17:18:04.781Z,6.13
2023-02-20T17:18:29.665Z,6.13
2023-02-20T17:20:31.151Z,5.50
2023-02-20T17:23:04.584Z,6.78
2023-02-20T17:23:29.594Z,6.78
2023-02-20T17:25:33.260Z,5.60
2023-02-20T17:27:59.687Z,5.97
2023-02-20T17:28:29.577Z,5.97
2023-02-20T17:30:26.467Z,5.85
2023-02-20T17:32:53.476Z,6.07
2023-02-20T17:33:29.586Z,6.07
2023-02-20T17:35:19.819Z,5.45
2023-02-20T17:37:46.686Z,6.00
2023-02-20T17:38:29.573Z,6.00
2023-02-20T17:40:13.811Z,5.57
2023-02-20T17:42:41.095Z,5.35
2023-02-20T17:43:29.583Z,5.35
2023-02-20T17:45:08.153Z,6.72
2023-02-20T17:47:36.506Z,9.02
2023-02-20T17:48:29.553Z,9.02
2023-02-20T17:50:03.128Z,9.98
2023-02-20T17:52:29.462Z,6.78
2023-02-20T17:53:29.558Z,6.78
2023-02-20T17:54:55.958Z,7.63
2023-02-20T17:57:23.085Z,7.95
2023-02-20T17:58:29.615Z,7.95
2023-02-20T17:59:49.950Z,7.80
2023-02-20T18:02:18.198Z,9.38
2023-02-20T18:03:29.602Z,9.38
2023-02-20T18:04:44.892Z,11.85
2023-02-20T18:07:14.453Z,11.80
2023-02-20T18:08:29.565Z,11.80
2023-02-20T18:09:40.896Z,8.63
2023-02-20T18:12:07.729Z,11.25
2023-02-20T18:13:29.599Z,11.25
2023-02-20T18:14:34.110Z,5.50
2023-02-20T18:17:00.520Z,6.30
2023-02-20T18:18:29.551Z,6.30
2023-02-20T18:19:27.115Z,10.70
2023-02-20T18:21:53.763Z,8.75
2023-02-20T18:23:29.606Z,8.75
2023-02-20T18:24:26.140Z,7.88
2023-02-20T18:26:54.196Z,9.20
2023-02-20T18:28:29.583Z,9.20
2023-02-20T18:29:20.971Z,8.48
2023-02-20T18:31:48.697Z,8.10
2023-02-20T18:33:29.598Z,8.10
2023-02-20T18:34:15.498Z,7.07
2023-02-20T18:36:42.110Z,7.75
2023-02-20T18:38:29.626Z,7.75
2023-02-20T18:39:09.940Z,7.65
2023-02-20T18:41:37.638Z,7.05
2023-02-20T18:43:29.607Z,7.05
2023-02-20T18:44:04.503Z,6.60
2023-02-20T18:46:36.408Z,6.80
2023-02-20T18:48:29.621Z,6.80
2023-02-20T18:49:04.131Z,6.50
2023-02-20T18:51:36.981Z,8.43
2023-02-20T18:53:29.591Z,8.43
2023-02-20T18:54:08.795Z,6.25
2023-02-20T18:56:36.327Z,6.72
2023-02-20T18:58:29.562Z,6.72
2023-02-20T18:59:06.183Z,6.63
2023-02-20T19:01:33.791Z,6.80
2023-02-20T19:03:29.577Z,6.80
2023-02-20T19:04:02.987Z,6.68
2023-02-20T19:06:36.816Z,6.60
2023-02-20T19:08:29.574Z,6.60
2023-02-20T19:09:04.104Z,6.53
2023-02-20T19:11:30.612Z,6.03
2023-02-20T19:13:29.589Z,6.03
2023-02-20T19:13:57.172Z,6.90
2023-02-20T19:16:24.047Z,6.90
2023-02-20T19:18:30.229Z,6.90
2023-02-20T19:18:51.242Z,6.97
2023-02-20T19:21:19.649Z,5.22
2023-02-20T19:23:29.602Z,5.22
2023-02-20T19:23:46.864Z,7.57
2023-02-20T19:26:14.053Z,5.95
2023-02-20T19:28:29.597Z,5.95
2023-02-20T19:28:42.240Z,6.28
2023-02-20T19:31:09.440Z,5.57
2023-02-20T19:33:29.610Z,5.57
2023-02-20T19:33:36.300Z,6.90
2023-02-20T19:36:03.052Z,6.25
2023-02-20T19:38:29.407Z,5.95
2023-02-20T19:38:29.632Z,5.95
2023-02-20T19:40:55.796Z,7.05
2023-02-20T19:43:22.220Z,6.65
2023-02-20T19:43:29.604Z,6.65
2023-02-20T19:45:48.625Z,6.20
2023-02-20T19:48:15.946Z,6.75
2023-02-20T19:48:29.603Z,6.75
2023-02-20T19:50:42.383Z,6.47
2023-02-20T19:53:08.799Z,7.53
2023-02-20T19:53:29.624Z,7.53
2023-02-20T19:55:35.150Z,6.88
2023-02-20T19:58:02.718Z,7.05
2023-02-20T19:58:29.662Z,7.05
2023-02-20T20:00:31.257Z,6.50
2023-02-20T20:02:58.204Z,6.70
2023-02-20T20:03:29.629Z,6.70
2023-02-20T20:05:25.566Z,7.30
2023-02-20T20:07:52.209Z,6.30
2023-02-20T20:08:29.624Z,6.30
2023-02-20T20:10:23.092Z,6.82
2023-02-20T20:12:49.553Z,7.03
2023-02-20T20:13:29.616Z,7.03
2023-02-20T20:15:25.715Z,6.88
2023-02-20T20:17:55.558Z,7.03
2023-02-20T20:18:29.629Z,7.03
2023-02-20T20:20:23.777Z,7.07
2023-02-20T20:22:55.475Z,6.70
2023-02-20T20:23:29.617Z,6.70
2023-02-20T20:25:23.754Z,7.07
2023-02-20T20:27:51.908Z,5.35
2023-02-20T20:28:29.756Z,5.35
2023-02-20T20:30:23.584Z,7.60
2023-02-20T20:32:51.538Z,7.43
2023-02-20T20:33:29.784Z,7.43
2023-02-20T20:35:23.335Z,7.20
2023-02-20T20:37:50.261Z,7.30
2023-02-20T20:38:29.640Z,7.30
2023-02-20T20:40:17.463Z,6.40
2023-02-20T20:42:44.570Z,6.30
2023-02-20T20:43:29.608Z,6.30
2023-02-20T20:45:13.872Z,6.70
2023-02-20T20:47:42.635Z,5.43
2023-02-20T20:48:29.611Z,5.43
2023-02-20T20:50:17.652Z,7.80
2023-02-20T20:52:44.831Z,6.60
2023-02-20T20:53:29.617Z,6.60
2023-02-20T20:55:12.573Z,6.40
2023-02-20T20:57:41.106Z,6.47
2023-02-20T20:58:29.646Z,6.47
2023-02-20T21:00:10.760Z,6.45
2023-02-20T21:02:37.444Z,5.80
2023-02-20T21:03:29.616Z,5.80
2023-02-20T21:05:10.155Z,7.07
2023-02-20T21:07:40.381Z,6.50
2023-02-20T21:08:29.622Z,6.50
2023-02-20T21:10:08.168Z,6.50
2023-02-20T21:12:34.588Z,6.18
2023-02-20T21:13:29.634Z,6.18
2023-02-20T21:15:01.114Z,7.65
2023-02-20T21:17:27.464Z,7.00
2023-02-20T21:18:29.631Z,7.00
2023-02-20T21:19:53.885Z,6.93
2023-02-20T21:22:20.960Z,5.63
2023-02-20T21:23:29.615Z,5.63
2023-02-20T21:24:47.592Z,6.55
2023-02-20T21:27:14.010Z,7.07
2023-02-20T21:28:29.631Z,7.07
2023-02-20T21:29:40.388Z,7.95
2023-02-20T21:32:07.312Z,7.18
2023-02-20T21:33:29.636Z,7.18
2023-02-20T21:34:33.863Z,6.93
2023-02-20T21:37:00.407Z,7.22
2023-02-20T21:38:29.671Z,7.22
2023-02-20T21:39:26.797Z,7.32
2023-02-20T21:42:12.001Z,5.35
2023-02-20T21:43:29.631Z,5.35
2023-02-20T21:44:42.759Z,6.20
2023-02-20T21:47:10.848Z,6.85
2023-02-20T21:48:29.655Z,6.85
2023-02-20T21:49:42.867Z,7.13
2023-02-20T21:52:09.301Z,6.30
2023-02-20T21:53:29.650Z,6.30
2023-02-20T21:54:36.264Z,6.57
2023-02-20T21:57:02.632Z,6.57
2023-02-20T21:58:29.629Z,6.57
2023-02-20T21:59:29.269Z,8.13
2023-02-20T22:01:55.917Z,6.97
2023-02-20T22:03:29.667Z,6.97
2023-02-20T22:04:25.437Z,5.93
2023-02-20T22:07:10.771Z,6.32
2023-02-20T22:08:29.650Z,6.32
2023-02-20T22:09:56.338Z,5.28
2023-02-20T22:12:41.568Z,6.72
2023-02-20T22:13:29.650Z,6.72
2023-02-20T22:15:26.929Z,6.68
2023-02-20T22:18:12.224Z,7.25
2023-02-20T22:18:29.662Z,7.25
2023-02-20T22:20:57.296Z,6.30